Terminal Aerodrome Forecast
Issued by NWS Portland, ME

Home | Current Version | Previous Version | Text Only | Print | Product List | Glossary On
Versions: 1 2 3 4 5 6 7 8 9 10 11 12 13 14 15 16 17
000
FTUS41 KGYX 232100 AAA
TAFPWM
TAF AMD
KPWM 232159Z 2322/2418 19009KT P6SM FEW045 SCT100
     FM240000 20010KT 5SM -TSRA BKN050CB
      TEMPO 2400/2402 31015G25KT 1SM +TSRA BKN025CB OVC040
     FM240400 30005KT P6SM SCT040 BKN100
     FM240800 34005KT 3SM BR SCT012 SCT040 BKN100
     FM241200 35009KT P6SM SCT120=

USA.gov is the U.S. government's official web portal to all federal, state and local government web resources and services.